createdAt,value
2023-03-21T00:01:46.759Z,95.90
2023-03-21T00:04:52.523Z,96.00
2023-03-21T00:07:56.093Z,95.80
2023-03-21T00:10:59.702Z,95.80
2023-03-21T00:14:02.685Z,96.10
2023-03-21T00:17:05.361Z,96.30
2023-03-21T00:20:15.307Z,96.60
2023-03-21T00:23:18.274Z,96.80
2023-03-21T00:26:20.337Z,96.90
2023-03-21T00:29:22.392Z,97.10
2023-03-21T00:32:25.540Z,97.20
2023-03-21T00:38:51.036Z,97.20
2023-03-21T00:41:53.077Z,97.30
2023-03-21T00:44:55.126Z,97.20
2023-03-21T00:47:57.467Z,97.30
2023-03-21T00:51:00.631Z,97.40
2023-03-21T00:54:05.630Z,97.40
2023-03-21T00:57:07.799Z,97.50
2023-03-21T01:00:12.543Z,97.60
2023-03-21T01:03:24.450Z,97.60
2023-03-21T01:06:27.630Z,97.70
2023-03-21T01:09:29.765Z,97.80
2023-03-21T01:12:31.876Z,97.80
2023-03-21T01:15:34.071Z,97.90
2023-03-21T01:18:38.815Z,98.00
2023-03-21T01:21:40.724Z,98.10
2023-03-21T01:24:52.383Z,98.10
2023-03-21T01:27:56.194Z,98.20
2023-03-21T01:31:00.534Z,98.40
2023-03-21T01:34:02.597Z,98.60
2023-03-21T01:37:04.646Z,98.70
2023-03-21T01:40:07.160Z,98.90
2023-03-21T01:43:30.360Z,98.90
2023-03-21T01:46:51.459Z,99.00
2023-03-21T01:50:02.435Z,99.10
2023-03-21T01:53:04.646Z,99.40
2023-03-21T01:56:12.404Z,99.50
2023-03-21T01:59:21.714Z,99.60
2023-03-21T02:02:29.992Z,99.60
2023-03-21T02:05:50.619Z,99.70
2023-03-21T02:08:53.452Z,99.90
2023-03-21T02:11:55.907Z,99.80
2023-03-21T02:14:58.572Z,99.90
2023-03-21T02:18:13.246Z,99.90
2023-03-21T02:21:36.217Z,99.90
2023-03-21T02:25:01.464Z,99.90
2023-03-21T02:28:08.057Z,99.90
2023-03-21T02:31:16.589Z,99.70
2023-03-21T02:34:46.348Z,99.80
2023-03-21T02:38:00.826Z,99.80
2023-03-21T02:41:59.694Z,99.60
2023-03-21T02:45:26.101Z,99.90
2023-03-21T02:49:00.528Z,99.90
2023-03-21T02:52:14.442Z,99.80
2023-03-21T02:55:27.376Z,99.90
2023-03-21T02:58:32.217Z,99.90
2023-03-21T03:01:34.389Z,99.90
2023-03-21T03:04:36.511Z,99.70
2023-03-21T03:07:42.391Z,99.90
2023-03-21T03:10:53.214Z,99.90
2023-03-21T03:14:52.985Z,99.90
2023-03-21T03:18:13.424Z,99.90
2023-03-21T03:21:27.548Z,99.70
2023-03-21T03:24:39.821Z,99.60
2023-03-21T03:27:44.361Z,99.60
2023-03-21T03:31:06.972Z,99.40
2023-03-21T03:34:16.723Z,99.60
2023-03-21T03:37:26.396Z,99.50
2023-03-21T03:40:39.325Z,99.50
2023-03-21T03:43:48.197Z,99.50
2023-03-21T03:47:32.790Z,99.30
2023-03-21T03:51:06.185Z,99.30
2023-03-21T03:54:17.705Z,99.30
2023-03-21T03:57:20.381Z,99.50
2023-03-21T04:00:22.566Z,99.90
2023-03-21T04:03:24.966Z,99.70
2023-03-21T04:06:29.115Z,99.70
2023-03-21T04:09:43.142Z,99.80
2023-03-21T04:12:46.487Z,99.70
2023-03-21T04:15:48.459Z,99.80
2023-03-21T04:18:50.712Z,99.70
2023-03-21T04:21:53.279Z,99.70
2023-03-21T04:24:56.330Z,99.80
2023-03-21T04:27:58.578Z,99.80
2023-03-21T04:31:06.900Z,99.90
2023-03-21T04:34:13.151Z,99.70
2023-03-21T04:37:15.426Z,99.70
2023-03-21T04:40:19.097Z,99.40
2023-03-21T04:43:21.652Z,99.40
2023-03-21T04:46:24.391Z,99.70
2023-03-21T04:49:27.623Z,99.50
2023-03-21T04:52:29.714Z,99.40
2023-03-21T04:55:32.517Z,99.40
2023-03-21T04:58:34.804Z,99.30
2023-03-21T05:01:36.986Z,99.40
2023-03-21T05:04:39.569Z,99.30
2023-03-21T05:07:41.934Z,99.20
2023-03-21T05:10:44.306Z,99.30
2023-03-21T05:13:46.509Z,99.50
2023-03-21T05:16:53.476Z,99.10
2023-03-21T05:19:59.328Z,99.40
2023-03-21T05:23:01.366Z,99.50
2023-03-21T05:26:03.584Z,99.40
2023-03-21T05:29:06.141Z,99.30
2023-03-21T05:32:08.165Z,99.40
2023-03-21T05:35:10.752Z,99.50
2023-03-21T05:38:12.721Z,99.40
2023-03-21T05:41:19.060Z,99.50
2023-03-21T05:44:21.179Z,99.20
2023-03-21T05:47:23.316Z,99.50
2023-03-21T05:50:25.613Z,99.40
2023-03-21T05:53:27.811Z,99.40
2023-03-21T05:56:29.809Z,99.40
2023-03-21T05:59:31.922Z,99.50
2023-03-21T06:02:34.297Z,99.50
2023-03-21T06:05:37.699Z,99.30
2023-03-21T06:08:41.892Z,99.30
2023-03-21T06:11:48.738Z,99.50
2023-03-21T06:14:50.754Z,99.90
2023-03-21T06:17:52.998Z,99.80
2023-03-21T06:20:57.558Z,99.80
2023-03-21T06:23:59.605Z,99.60
2023-03-21T06:27:03.857Z,99.60
2023-03-21T06:30:08.561Z,99.60
2023-03-21T06:33:10.706Z,99.70
2023-03-21T06:36:12.873Z,99.80
2023-03-21T06:39:16.207Z,99.80
2023-03-21T06:42:18.358Z,99.90
2023-03-21T06:45:20.640Z,99.90
2023-03-21T06:48:22.747Z,99.90
2023-03-21T06:51:25.993Z,99.90
2023-03-21T06:54:28.187Z,99.90
2023-03-21T06:57:30.155Z,99.90
2023-03-21T07:00:32.982Z,99.90
2023-03-21T07:03:35.597Z,99.90
2023-03-21T07:06:40.847Z,99.60
2023-03-21T07:09:42.849Z,97.70
2023-03-21T07:12:44.836Z,97.00
2023-03-21T07:15:46.792Z,95.90
2023-03-21T07:18:48.986Z,94.70
2023-03-21T07:21:51.011Z,93.80
2023-03-21T07:25:04.006Z,94.20
2023-03-21T07:28:09.228Z,93.60
2023-03-21T07:31:16.433Z,92.80
2023-03-21T07:34:19.074Z,92.70
2023-03-21T07:37:21.726Z,93.00
2023-03-21T07:40:24.721Z,92.90
2023-03-21T07:43:31.293Z,92.70
2023-03-21T07:46:33.487Z,92.20
2023-03-21T07:49:37.818Z,90.60
2023-03-21T07:52:39.902Z,90.50
2023-03-21T07:55:41.899Z,87.70
2023-03-21T07:58:44.163Z,84.40
2023-03-21T08:01:46.165Z,83.90
2023-03-21T08:04:48.608Z,81.70
2023-03-21T08:07:51.382Z,78.80
2023-03-21T08:10:53.729Z,78.10
2023-03-21T08:13:56.459Z,75.60
2023-03-21T08:16:58.623Z,74.30
2023-03-21T08:20:00.732Z,73.90
2023-03-21T08:23:02.755Z,73.60
2023-03-21T08:26:04.930Z,72.00
2023-03-21T08:29:07.062Z,70.70
2023-03-21T08:32:10.135Z,71.20
2023-03-21T08:35:16.073Z,68.90
2023-03-21T08:38:18.176Z,68.80
2023-03-21T08:41:22.212Z,67.90
2023-03-21T08:44:26.282Z,65.30
2023-03-21T08:47:28.378Z,65.90
2023-03-21T08:50:31.908Z,66.90
2023-03-21T08:53:34.259Z,65.70
2023-03-21T08:56:37.464Z,66.00
2023-03-21T08:59:39.884Z,65.60
2023-03-21T09:02:42.986Z,62.60
2023-03-21T09:05:47.821Z,63.20
2023-03-21T09:08:52.859Z,63.20
2023-03-21T09:11:55.097Z,62.90
2023-03-21T09:14:57.132Z,61.50
2023-03-21T09:18:13.267Z,60.40
2023-03-21T09:21:17.389Z,59.10
2023-03-21T09:24:20.752Z,60.80
2023-03-21T09:27:28.313Z,61.60
2023-03-21T09:30:31.653Z,61.30
2023-03-21T09:33:35.388Z,62.30
2023-03-21T09:36:37.534Z,59.40
2023-03-21T09:39:44.997Z,57.50
2023-03-21T09:43:06.234Z,59.50
2023-03-21T09:46:25.341Z,54.50
2023-03-21T09:49:40.679Z,56.70
2023-03-21T09:53:18.231Z,53.00
2023-03-21T09:56:21.418Z,54.00
2023-03-21T09:59:38.332Z,54.50
2023-03-21T10:02:49.733Z,55.60
2023-03-21T10:05:58.778Z,56.50
2023-03-21T10:09:09.331Z,57.30
2023-03-21T10:12:22.453Z,55.40
2023-03-21T10:15:26.767Z,54.00
2023-03-21T10:18:31.245Z,55.40
2023-03-21T10:22:00.145Z,53.40
2023-03-21T10:24:56.495Z,53.90
2023-03-21T10:27:59.868Z,54.20
2023-03-21T10:31:08.377Z,51.70
2023-03-21T10:34:21.862Z,51.00
2023-03-21T10:37:25.959Z,50.50
2023-03-21T10:40:28.105Z,49.20
2023-03-21T10:43:34.022Z,49.30
2023-03-21T10:46:36.514Z,49.10
2023-03-21T10:50:05.456Z,49.80
2023-03-21T10:53:02.254Z,50.60
2023-03-21T10:56:11.389Z,52.80
2023-03-21T10:59:21.044Z,51.00
2023-03-21T11:02:31.062Z,52.60
2023-03-21T11:05:39.887Z,52.10
2023-03-21T11:08:49.158Z,53.00
2023-03-21T11:12:02.447Z,51.30
2023-03-21T11:15:40.873Z,52.00
2023-03-21T11:18:45.230Z,52.10
2023-03-21T11:21:47.421Z,51.60
2023-03-21T11:24:56.703Z,51.50
2023-03-21T11:27:59.415Z,51.90
2023-03-21T11:31:03.712Z,51.90
2023-03-21T11:34:10.374Z,50.50
2023-03-21T11:37:32.974Z,49.90
2023-03-21T11:40:37.024Z,52.00
2023-03-21T11:43:40.091Z,50.90
2023-03-21T11:46:42.337Z,51.90
2023-03-21T11:49:44.369Z,54.20
2023-03-21T11:53:00.005Z,58.80
2023-03-21T11:56:33.000Z,63.30
2023-03-21T11:59:52.255Z,63.00
2023-03-21T12:03:22.031Z,66.30
2023-03-21T12:06:52.903Z,68.40
2023-03-21T12:10:17.872Z,70.60
2023-03-21T12:13:41.570Z,71.30
2023-03-21T12:17:17.636Z,72.70
2023-03-21T12:20:49.597Z,73.60
2023-03-21T12:23:58.037Z,75.50
2023-03-21T12:27:17.952Z,77.40
2023-03-21T12:30:34.969Z,78.70
2023-03-21T12:34:05.906Z,78.90
2023-03-21T12:37:13.808Z,79.70
2023-03-21T12:40:24.496Z,80.10
2023-03-21T12:43:44.563Z,80.20
2023-03-21T12:47:02.488Z,79.80
2023-03-21T12:50:15.446Z,80.50
2023-03-21T12:53:36.227Z,80.10
2023-03-21T12:56:38.244Z,80.90
2023-03-21T12:59:46.114Z,80.20
2023-03-21T13:02:57.764Z,80.40
2023-03-21T13:06:05.263Z,80.60
2023-03-21T13:09:28.381Z,81.40
2023-03-21T13:12:58.001Z,81.70
2023-03-21T13:16:07.523Z,81.70
2023-03-21T13:19:21.461Z,81.30
2023-03-21T13:22:29.711Z,82.00
2023-03-21T13:25:33.426Z,81.40
2023-03-21T13:28:38.760Z,81.30
2023-03-21T13:31:52.002Z,81.60
2023-03-21T13:35:13.805Z,82.30
2023-03-21T13:38:22.921Z,82.30
2023-03-21T13:41:44.108Z,83.30
2023-03-21T13:44:56.823Z,82.60
2023-03-21T13:48:06.836Z,82.40
2023-03-21T13:51:09.017Z,83.80
2023-03-21T13:54:14.184Z,82.60
2023-03-21T13:57:43.751Z,82.20
2023-03-21T14:01:23.635Z,82.50
2023-03-21T14:04:42.020Z,82.10
2023-03-21T14:07:49.878Z,82.90
2023-03-21T14:10:59.801Z,83.00
2023-03-21T14:14:04.369Z,83.60
2023-03-21T14:17:22.544Z,83.60
2023-03-21T14:20:38.478Z,83.70
2023-03-21T14:23:41.035Z,82.50
2023-03-21T14:26:49.500Z,80.90
2023-03-21T14:29:53.438Z,81.10
2023-03-21T14:33:01.809Z,81.30
2023-03-21T14:36:15.973Z,80.50
2023-03-21T14:39:24.353Z,80.70
2023-03-21T14:42:26.616Z,81.50
2023-03-21T14:45:30.981Z,82.80
2023-03-21T14:48:34.957Z,87.10
2023-03-21T14:51:37.695Z,87.20
2023-03-21T14:54:46.424Z,86.50
2023-03-21T14:57:49.306Z,86.80
2023-03-21T15:00:55.303Z,87.50
2023-03-21T15:04:00.639Z,86.90
2023-03-21T15:07:05.166Z,86.80
2023-03-21T15:10:14.855Z,86.50
2023-03-21T15:13:30.992Z,87.10
2023-03-21T15:16:34.053Z,87.20
2023-03-21T15:19:40.082Z,87.20
2023-03-21T15:22:58.106Z,86.80
2023-03-21T15:26:04.263Z,87.00
2023-03-21T15:29:07.584Z,87.00
2023-03-21T15:32:22.866Z,87.10
2023-03-21T15:35:55.644Z,87.90
2023-03-21T15:39:00.871Z,88.30
2023-03-21T15:42:23.498Z,88.40
2023-03-21T15:45:29.375Z,88.80
2023-03-21T15:48:35.203Z,89.20
2023-03-21T15:51:37.574Z,89.50
2023-03-21T15:54:45.585Z,89.40
2023-03-21T15:57:50.065Z,89.40
2023-03-21T16:00:57.621Z,89.10
2023-03-21T16:04:07.862Z,89.30
2023-03-21T16:07:17.455Z,89.60
2023-03-21T16:10:37.351Z,89.50
2023-03-21T16:13:39.605Z,89.80
2023-03-21T16:16:41.902Z,89.40
2023-03-21T16:19:44.082Z,89.50
2023-03-21T16:22:47.495Z,90.00
2023-03-21T16:25:56.076Z,90.00
2023-03-21T16:28:58.587Z,90.30
2023-03-21T16:32:06.138Z,90.30
2023-03-21T16:35:08.700Z,90.30
2023-03-21T16:38:13.150Z,90.10
2023-03-21T16:41:17.293Z,89.80
2023-03-21T16:44:20.302Z,89.70
2023-03-21T16:47:25.635Z,89.90
2023-03-21T16:50:31.825Z,90.10
2023-03-21T16:53:38.950Z,89.90
2023-03-21T16:56:44.932Z,90.20
2023-03-21T16:59:47.606Z,90.50
2023-03-21T17:02:55.040Z,90.60
2023-03-21T17:05:57.144Z,90.60
2023-03-21T17:08:59.456Z,90.60
2023-03-21T17:12:01.530Z,90.80
2023-03-21T17:15:03.836Z,90.90
2023-03-21T17:18:06.095Z,91.00
2023-03-21T17:21:13.951Z,91.20
2023-03-21T17:24:16.913Z,91.20
2023-03-21T17:27:19.035Z,91.20
2023-03-21T17:30:30.989Z,91.40
2023-03-21T17:33:33.026Z,91.30
2023-03-21T17:36:38.955Z,91.40
2023-03-21T17:39:43.044Z,91.80
2023-03-21T17:42:45.320Z,91.60
2023-03-21T17:45:47.381Z,91.90
2023-03-21T17:48:49.960Z,91.90
2023-03-21T17:51:52.405Z,91.60
2023-03-21T17:54:59.161Z,91.80
2023-03-21T17:58:01.477Z,91.50
2023-03-21T18:01:03.589Z,91.70
2023-03-21T18:04:05.778Z,92.00
2023-03-21T18:07:15.604Z,92.20
2023-03-21T18:10:23.834Z,92.40
2023-03-21T18:13:25.956Z,92.60
2023-03-21T18:16:28.239Z,93.10
2023-03-21T18:19:31.335Z,93.30
2023-03-21T18:22:33.537Z,93.20
2023-03-21T18:25:35.604Z,93.40
2023-03-21T18:28:39.953Z,93.40
2023-03-21T18:31:51.659Z,93.30
2023-03-21T18:35:00.644Z,93.30
2023-03-21T18:38:03.032Z,93.50
2023-03-21T18:41:10.370Z,93.30
2023-03-21T18:44:16.613Z,93.40
2023-03-21T18:47:24.822Z,93.30
2023-03-21T18:50:27.564Z,93.90
2023-03-21T18:53:29.974Z,93.70
2023-03-21T18:59:54.418Z,94.00
2023-03-21T19:03:13.885Z,94.40
2023-03-21T19:06:21.239Z,95.20
2023-03-21T19:09:29.505Z,95.00
2023-03-21T19:12:34.276Z,94.80
2023-03-21T19:15:36.789Z,94.90
2023-03-21T19:18:53.971Z,95.20
2023-03-21T19:21:57.406Z,95.20
2023-03-21T19:25:00.453Z,95.20
2023-03-21T19:28:04.048Z,95.30
2023-03-21T19:31:07.782Z,95.40
2023-03-21T19:34:10.298Z,95.70
2023-03-21T19:37:12.420Z,95.50
2023-03-21T19:40:15.031Z,95.40
2023-03-21T19:43:33.632Z,95.60
2023-03-21T19:46:36.115Z,95.20
2023-03-21T19:50:20.834Z,95.70
2023-03-21T19:53:03.049Z,95.90
2023-03-21T19:56:19.654Z,96.20
2023-03-21T19:59:23.508Z,96.10
2023-03-21T20:02:35.388Z,96.10
2023-03-21T20:05:38.468Z,96.20
2023-03-21T20:12:05.748Z,96.00
2023-03-21T20:15:17.535Z,95.80
2023-03-21T20:18:20.809Z,96.20
2023-03-21T20:21:25.817Z,96.20
2023-03-21T20:24:28.440Z,96.10
2023-03-21T20:27:31.126Z,96.30
2023-03-21T20:30:33.109Z,96.30
2023-03-21T20:33:36.786Z,96.50
2023-03-21T20:36:43.514Z,96.50
2023-03-21T20:39:45.921Z,96.50
2023-03-21T20:42:50.286Z,96.80
2023-03-21T20:46:04.585Z,96.80
2023-03-21T20:49:06.826Z,97.00
2023-03-21T20:52:54.432Z,97.10
2023-03-21T20:55:37.565Z,97.20
2023-03-21T20:58:59.336Z,97.10
2023-03-21T21:02:03.192Z,97.40
2023-03-21T21:05:35.475Z,97.70
2023-03-21T21:08:30.522Z,97.70
2023-03-21T21:12:05.504Z,97.40
2023-03-21T21:14:56.225Z,97.90
2023-03-21T21:18:07.839Z,98.00
2023-03-21T21:21:10.371Z,97.90
2023-03-21T21:24:14.624Z,97.50
2023-03-21T21:27:16.939Z,97.50
2023-03-21T21:30:19.186Z,97.10
2023-03-21T21:33:22.361Z,97.20
2023-03-21T21:36:24.439Z,97.50
2023-03-21T21:39:27.681Z,97.20
2023-03-21T21:42:29.714Z,96.80
2023-03-21T21:45:31.823Z,96.90
2023-03-21T21:48:34.367Z,97.00
2023-03-21T21:51:36.608Z,97.20
2023-03-21T21:54:46.229Z,97.10
2023-03-21T21:57:50.779Z,96.90
2023-03-21T22:00:53.000Z,97.00
2023-03-21T22:03:57.605Z,97.30
2023-03-21T22:06:59.666Z,97.20
2023-03-21T22:10:05.620Z,97.10
2023-03-21T22:13:07.656Z,97.20
2023-03-21T22:16:10.043Z,97.20
2023-03-21T22:19:12.145Z,97.20
2023-03-21T22:22:14.098Z,97.20
2023-03-21T22:25:17.273Z,97.20
2023-03-21T22:28:22.179Z,97.30
2023-03-21T22:31:26.102Z,97.10
2023-03-21T22:34:29.070Z,97.40
2023-03-21T22:37:33.738Z,97.50
2023-03-21T22:40:35.699Z,97.10
2023-03-21T22:43:38.104Z,97.10
2023-03-21T22:46:40.393Z,97.30
2023-03-21T22:49:45.405Z,97.30
2023-03-21T22:52:49.708Z,97.20
2023-03-21T22:55:55.158Z,97.30
2023-03-21T22:58:57.352Z,97.70
2023-03-21T23:01:59.484Z,97.50
2023-03-21T23:05:01.690Z,97.80
2023-03-21T23:08:03.962Z,97.70
2023-03-21T23:11:09.671Z,97.80
2023-03-21T23:14:13.894Z,97.90
2023-03-21T23:17:16.452Z,97.80
2023-03-21T23:20:19.245Z,98.20
2023-03-21T23:23:21.323Z,98.20
2023-03-21T23:26:24.768Z,98.00
2023-03-21T23:29:26.946Z,98.00
2023-03-21T23:32:29.426Z,97.80
2023-03-21T23:35:34.812Z,97.70
2023-03-21T23:38:37.153Z,97.50
2023-03-21T23:41:39.208Z,97.80
2023-03-21T23:44:41.650Z,97.80
2023-03-21T23:47:43.823Z,97.80
2023-03-21T23:50:46.309Z,98.10
2023-03-21T23:53:48.583Z,98.10
2023-03-21T23:56:50.769Z,98.00
2023-03-21T23:59:55.609Z,97.70
